createdAt,value
2018-05-16T00:00:20.675Z,56.40
2018-05-16T00:02:50.394Z,50.40
2018-05-16T00:05:19.902Z,51.40
2018-05-16T00:07:49.586Z,53.20
2018-05-16T00:10:19.850Z,49.80
2018-05-16T00:12:48.144Z,53.60
2018-05-16T00:15:17.851Z,54.80
2018-05-16T00:17:47.861Z,57.80
2018-05-16T00:20:16.677Z,61.00
2018-05-16T00:22:45.559Z,59.40
2018-05-16T00:25:15.229Z,61.60
2018-05-16T00:27:44.825Z,55.40
2018-05-16T00:30:14.461Z,67.00
2018-05-16T00:32:43.594Z,66.80
2018-05-16T00:35:12.851Z,63.00
2018-05-16T00:37:42.404Z,66.00
2018-05-16T00:40:11.562Z,71.80
2018-05-16T00:42:40.726Z,70.60
2018-05-16T00:45:09.806Z,67.20
2018-05-16T00:47:38.785Z,67.60
2018-05-16T00:50:08.337Z,63.00
2018-05-16T00:52:38.114Z,61.80
2018-05-16T00:55:07.101Z,62.60
2018-05-16T00:57:36.316Z,57.80
2018-05-16T01:00:05.016Z,60.00
2018-05-16T01:02:34.822Z,53.20
2018-05-16T01:05:05.281Z,54.20
2018-05-16T01:07:34.238Z,55.80
2018-05-16T01:10:04.013Z,54.20
2018-05-16T01:12:33.769Z,53.60
2018-05-16T01:15:02.708Z,53.60
2018-05-16T01:17:31.673Z,50.60
2018-05-16T01:20:01.247Z,51.80
2018-05-16T01:22:30.691Z,45.80
2018-05-16T01:25:00.128Z,50.80
2018-05-16T01:27:30.042Z,51.80
2018-05-16T01:29:59.364Z,52.60
2018-05-16T01:32:28.813Z,46.80
2018-05-16T01:34:58.806Z,50.00
2018-05-16T01:37:28.088Z,50.80
2018-05-16T01:39:57.493Z,51.80
2018-05-16T01:42:26.353Z,48.80
2018-05-16T01:44:55.690Z,52.00
2018-05-16T01:47:25.879Z,47.40
2018-05-16T01:49:55.559Z,49.20
2018-05-16T01:52:24.674Z,55.80
2018-05-16T01:54:53.447Z,53.00
2018-05-16T01:57:22.834Z,56.60
2018-05-16T01:59:52.572Z,53.60
2018-05-16T02:02:21.563Z,51.80
2018-05-16T02:04:50.615Z,56.00
2018-05-16T02:07:21.630Z,56.60
2018-05-16T02:09:50.535Z,55.40
2018-05-16T02:12:19.422Z,53.60
2018-05-16T02:14:48.865Z,60.00
2018-05-16T02:17:17.815Z,52.80
2018-05-16T02:19:46.551Z,52.80
2018-05-16T02:22:15.563Z,56.60
2018-05-16T02:24:45.296Z,53.40
2018-05-16T02:27:14.696Z,55.00
2018-05-16T02:29:43.727Z,56.80
2018-05-16T02:32:13.306Z,53.80
2018-05-16T02:34:42.100Z,57.80
2018-05-16T02:37:11.167Z,60.80
2018-05-16T02:39:39.943Z,54.40
2018-05-16T02:42:09.371Z,55.40
2018-05-16T02:44:38.797Z,57.00
2018-05-16T02:47:08.531Z,57.80
2018-05-16T02:49:38.247Z,56.40
2018-05-16T02:52:07.327Z,55.40
2018-05-16T02:54:36.494Z,57.60
2018-05-16T02:57:05.857Z,54.80
2018-05-16T02:59:35.593Z,57.80
2018-05-16T03:02:05.337Z,56.20
2018-05-16T03:04:34.824Z,54.80
2018-05-16T03:07:03.584Z,53.60
2018-05-16T03:09:34.167Z,56.80
2018-05-16T03:12:03.744Z,57.20
2018-05-16T03:14:33.102Z,53.40
2018-05-16T03:17:02.894Z,54.20
2018-05-16T03:19:32.565Z,54.00
2018-05-16T03:22:01.884Z,53.20
2018-05-16T03:24:30.867Z,51.60
2018-05-16T03:26:59.823Z,49.20
2018-05-16T03:29:28.908Z,55.00
2018-05-16T03:31:57.897Z,57.40
2018-05-16T03:34:26.891Z,57.20
2018-05-16T03:36:56.660Z,57.00
2018-05-16T03:39:25.692Z,53.60
2018-05-16T03:41:54.915Z,56.60
2018-05-16T03:44:25.622Z,57.20
2018-05-16T03:46:55.151Z,55.40
2018-05-16T03:49:24.050Z,51.20
2018-05-16T03:51:53.190Z,54.60
2018-05-16T03:54:22.147Z,50.80
2018-05-16T03:56:52.122Z,50.00
2018-05-16T03:59:33.213Z,51.20
2018-05-16T04:02:13.641Z,54.80
2018-05-16T04:04:42.994Z,51.60
2018-05-16T04:07:12.559Z,49.20
2018-05-16T04:09:43.120Z,56.80
2018-05-16T04:12:12.821Z,53.20
2018-05-16T04:14:42.072Z,55.00
2018-05-16T04:17:11.339Z,53.00
2018-05-16T04:19:41.120Z,53.80
2018-05-16T04:22:10.741Z,54.00
2018-05-16T04:24:40.345Z,57.80
2018-05-16T04:27:09.988Z,54.20
2018-05-16T04:29:39.356Z,54.00
2018-05-16T04:32:09.309Z,53.00
2018-05-16T04:34:39.040Z,53.80
2018-05-16T04:37:08.188Z,55.80
2018-05-16T04:39:37.449Z,58.40
2018-05-16T04:42:07.070Z,54.60
2018-05-16T04:44:36.463Z,53.60
2018-05-16T04:47:05.163Z,52.60
2018-05-16T04:49:34.487Z,56.00
2018-05-16T04:52:04.193Z,64.20
2018-05-16T04:54:33.910Z,61.40
2018-05-16T04:57:02.568Z,60.80
2018-05-16T04:59:31.445Z,60.00
2018-05-16T05:02:01.194Z,57.80
2018-05-16T05:04:30.784Z,58.20
2018-05-16T05:07:00.362Z,53.40
2018-05-16T05:09:29.753Z,54.80
2018-05-16T05:12:00.582Z,59.60
2018-05-16T05:14:29.885Z,54.00
2018-05-16T05:16:59.278Z,58.20
2018-05-16T05:19:28.330Z,58.40
2018-05-16T05:21:57.299Z,59.80
2018-05-16T05:24:26.178Z,55.60
2018-05-16T05:26:55.227Z,56.80
2018-05-16T05:29:24.664Z,57.00
2018-05-16T05:31:53.446Z,56.20
2018-05-16T05:34:22.449Z,52.80
2018-05-16T05:36:51.914Z,58.00
2018-05-16T05:39:21.343Z,53.20
2018-05-16T05:41:51.160Z,53.60
2018-05-16T05:44:20.419Z,57.40
2018-05-16T05:46:49.559Z,54.20
2018-05-16T05:49:19.311Z,55.60
2018-05-16T05:51:48.433Z,54.20
2018-05-16T05:54:18.126Z,52.80
2018-05-16T05:56:47.325Z,53.00
2018-05-16T05:59:16.654Z,46.40
2018-05-16T06:01:45.944Z,52.00
2018-05-16T06:04:15.196Z,50.60
2018-05-16T06:06:44.748Z,48.20
2018-05-16T06:09:14.133Z,50.00
2018-05-16T06:11:43.882Z,50.20
2018-05-16T06:14:14.435Z,52.00
2018-05-16T06:16:44.256Z,47.00
2018-05-16T06:19:13.578Z,53.20
2018-05-16T06:21:43.259Z,50.60
2018-05-16T06:24:12.567Z,55.60
2018-05-16T06:26:42.237Z,57.00
2018-05-16T06:29:11.916Z,50.80
2018-05-16T06:31:41.168Z,53.20
2018-05-16T06:34:11.217Z,52.20
2018-05-16T06:36:40.526Z,52.80
2018-05-16T06:39:09.720Z,53.60
2018-05-16T06:41:39.118Z,45.80
2018-05-16T06:44:08.285Z,56.00
2018-05-16T06:46:38.110Z,54.60
2018-05-16T06:49:07.252Z,53.40
2018-05-16T06:51:37.114Z,48.80
2018-05-16T06:54:06.702Z,50.80
2018-05-16T06:56:35.708Z,54.00
2018-05-16T06:59:05.671Z,55.80
2018-05-16T07:01:34.683Z,52.20
2018-05-16T07:04:03.767Z,56.00
2018-05-16T07:06:34.118Z,56.20
2018-05-16T07:09:03.373Z,49.80
2018-05-16T07:11:32.242Z,51.00
2018-05-16T07:14:01.379Z,50.20
2018-05-16T07:16:32.418Z,46.20
2018-05-16T07:19:01.659Z,48.20
2018-05-16T07:21:30.983Z,48.60
2018-05-16T07:24:00.984Z,47.20
2018-05-16T07:26:30.645Z,46.00
2018-05-16T07:28:59.908Z,50.80
2018-05-16T07:31:28.787Z,47.80
2018-05-16T07:33:58.166Z,46.40
2018-05-16T07:36:27.549Z,46.40
2018-05-16T07:39:01.239Z,49.00
2018-05-16T07:41:31.034Z,48.40
2018-05-16T07:44:00.745Z,47.20
2018-05-16T07:46:30.416Z,42.60
2018-05-16T07:48:59.291Z,42.40
2018-05-16T07:51:30.447Z,46.60
2018-05-16T07:54:00.132Z,45.60
2018-05-16T07:56:32.572Z,45.60
2018-05-16T07:59:02.136Z,41.00
2018-05-16T08:01:31.538Z,44.60
2018-05-16T08:04:00.499Z,45.40
2018-05-16T08:06:29.528Z,48.00
2018-05-16T08:08:58.732Z,46.00
2018-05-16T08:11:28.159Z,43.80
2018-05-16T08:14:01.219Z,44.40
2018-05-16T08:16:31.907Z,39.40
2018-05-16T08:19:01.701Z,43.80
2018-05-16T08:21:30.957Z,40.40
2018-05-16T08:23:59.771Z,36.00
2018-05-16T08:26:32.864Z,36.40
2018-05-16T08:29:02.160Z,34.40
2018-05-16T08:31:32.010Z,31.40
2018-05-16T08:34:02.312Z,33.40
2018-05-16T08:36:32.636Z,31.80
2018-05-16T08:39:01.872Z,29.60
2018-05-16T08:41:30.857Z,29.60
2018-05-16T08:44:01.225Z,32.20
2018-05-16T08:46:30.733Z,35.60
2018-05-16T08:48:59.812Z,31.00
2018-05-16T08:51:28.902Z,29.00
2018-05-16T08:53:58.107Z,27.60
2018-05-16T08:56:27.986Z,29.80
2018-05-16T08:58:56.781Z,28.80
2018-05-16T09:01:26.589Z,23.80
2018-05-16T09:03:56.190Z,28.60
2018-05-16T09:06:25.096Z,34.60
2018-05-16T09:08:54.644Z,25.60
2018-05-16T09:11:24.047Z,29.80
2018-05-16T09:13:53.205Z,27.60
2018-05-16T09:16:22.921Z,31.00
2018-05-16T09:18:52.903Z,26.20
2018-05-16T09:21:21.852Z,30.00
2018-05-16T09:23:51.925Z,31.60
2018-05-16T09:26:21.079Z,27.20
2018-05-16T09:28:50.110Z,30.60
2018-05-16T09:31:27.247Z,29.80
2018-05-16T09:34:00.646Z,27.60
2018-05-16T09:36:29.685Z,26.80
2018-05-16T09:38:58.595Z,33.20
2018-05-16T09:41:28.185Z,27.40
2018-05-16T09:44:02.414Z,30.40
2018-05-16T09:46:34.295Z,28.60
2018-05-16T09:49:05.053Z,27.60
2018-05-16T09:51:34.698Z,28.60
2018-05-16T09:54:03.426Z,29.40
2018-05-16T09:56:32.665Z,29.00
2018-05-16T10:01:35.884Z,29.60
2018-05-16T10:04:05.574Z,29.40
2018-05-16T10:09:14.233Z,29.40
2018-05-16T10:14:16.805Z,31.20
2018-05-16T10:16:46.060Z,29.80
2018-05-16T10:19:16.308Z,28.80
2018-05-16T10:21:46.138Z,31.60
2018-05-16T10:24:16.658Z,32.60
2018-05-16T10:26:48.182Z,27.60
2018-05-16T10:29:18.498Z,32.40
2018-05-16T10:31:51.878Z,28.40
2018-05-16T10:34:22.263Z,30.00
2018-05-16T10:36:52.444Z,28.60
2018-05-16T10:39:21.745Z,30.20
2018-05-16T10:41:52.811Z,29.80
2018-05-16T10:44:23.117Z,33.60
2018-05-16T10:46:54.103Z,32.40
2018-05-16T10:49:26.664Z,37.60
2018-05-16T10:51:59.531Z,34.20
2018-05-16T10:54:29.495Z,32.80
2018-05-16T10:57:00.933Z,29.20
2018-05-16T10:59:32.481Z,33.40
2018-05-16T11:02:02.029Z,34.60
2018-05-16T11:04:30.981Z,40.80
2018-05-16T11:06:59.955Z,31.60
2018-05-16T11:09:29.685Z,24.60
2018-05-16T11:11:58.892Z,33.20
2018-05-16T11:14:28.523Z,30.20
2018-05-16T11:16:57.898Z,36.20
2018-05-16T11:19:28.130Z,31.80
2018-05-16T11:21:56.846Z,44.00
2018-05-16T11:24:25.759Z,35.00
2018-05-16T11:26:55.361Z,33.60
2018-05-16T11:29:25.176Z,34.40
2018-05-16T11:31:54.612Z,35.60
2018-05-16T11:34:23.921Z,35.20
2018-05-16T11:36:52.966Z,33.60
2018-05-16T11:39:22.952Z,37.20
2018-05-16T11:41:52.104Z,30.20
2018-05-16T11:44:21.813Z,35.00
2018-05-16T11:46:50.984Z,34.00
2018-05-16T11:49:20.303Z,30.80
2018-05-16T11:51:49.390Z,33.20
2018-05-16T11:54:19.697Z,33.80
2018-05-16T11:56:48.732Z,34.00
2018-05-16T11:59:18.902Z,31.60
2018-05-16T12:01:47.416Z,31.00
2018-05-16T12:04:18.117Z,30.40
2018-05-16T12:06:47.731Z,28.20
2018-05-16T12:09:17.013Z,26.60
2018-05-16T12:11:46.299Z,32.60
2018-05-16T12:14:15.072Z,22.80
2018-05-16T12:16:44.535Z,33.80
2018-05-16T12:19:13.125Z,27.20
2018-05-16T12:21:43.293Z,30.00
2018-05-16T12:26:47.572Z,28.80
2018-05-16T12:29:17.483Z,27.20
2018-05-16T12:31:46.115Z,28.80
2018-05-16T12:34:15.469Z,28.20
2018-05-16T12:36:45.074Z,28.40
2018-05-16T12:39:14.564Z,27.20
2018-05-16T12:41:43.772Z,26.80
2018-05-16T12:44:12.875Z,25.80
2018-05-16T12:46:41.869Z,25.00
2018-05-16T12:49:11.261Z,24.80
2018-05-16T12:51:40.619Z,28.40
2018-05-16T12:54:09.688Z,26.20
2018-05-16T12:56:40.065Z,28.80
2018-05-16T12:59:09.118Z,27.80
2018-05-16T13:01:38.689Z,29.00
2018-05-16T13:04:09.513Z,30.40
2018-05-16T13:06:38.841Z,29.00
2018-05-16T13:09:07.901Z,20.40
2018-05-16T13:11:37.643Z,33.00
2018-05-16T13:14:06.825Z,27.80
2018-05-16T13:16:38.362Z,28.60
2018-05-16T13:19:07.362Z,26.80
2018-05-16T13:21:37.238Z,31.20
2018-05-16T13:24:06.739Z,29.40
2018-05-16T13:26:35.838Z,32.00
2018-05-16T13:29:05.335Z,28.00
2018-05-16T13:31:34.551Z,32.40
2018-05-16T13:34:04.952Z,26.40
2018-05-16T13:36:36.039Z,24.40
2018-05-16T13:39:04.888Z,28.00
2018-05-16T13:41:33.642Z,28.80
2018-05-16T13:44:03.067Z,27.00
2018-05-16T13:46:33.353Z,28.80
2018-05-16T13:49:02.229Z,27.40
2018-05-16T13:51:31.679Z,29.60
2018-05-16T13:54:01.212Z,27.40
2018-05-16T13:56:31.343Z,29.40
2018-05-16T13:59:00.711Z,25.80
2018-05-16T14:01:30.184Z,30.20
2018-05-16T14:03:58.967Z,28.80
2018-05-16T14:06:29.597Z,32.20
2018-05-16T14:08:59.255Z,33.00
2018-05-16T14:11:27.624Z,34.80
2018-05-16T14:13:55.829Z,34.40
2018-05-16T14:16:24.266Z,32.80
2018-05-16T14:18:53.851Z,30.40
2018-05-16T14:21:22.716Z,28.60
2018-05-16T14:23:51.544Z,31.80
2018-05-16T14:26:21.773Z,29.80
2018-05-16T14:28:50.773Z,29.40
2018-05-16T14:31:19.584Z,31.80
2018-05-16T14:33:50.061Z,34.00
2018-05-16T14:36:20.637Z,33.20
2018-05-16T14:38:49.739Z,33.80
2018-05-16T14:41:18.621Z,34.40
2018-05-16T14:43:48.413Z,39.00
2018-05-16T14:46:17.675Z,34.40
2018-05-16T14:48:47.417Z,35.40
2018-05-16T14:51:25.778Z,37.60
2018-05-16T14:53:55.675Z,42.60
2018-05-16T14:56:24.846Z,34.40
2018-05-16T14:58:57.537Z,35.20
2018-05-16T15:01:26.399Z,37.40
2018-05-16T15:03:54.793Z,40.60
2018-05-16T15:06:23.808Z,37.20
2018-05-16T15:08:53.740Z,39.60
2018-05-16T15:11:26.899Z,44.40
2018-05-16T15:13:55.777Z,45.00
2018-05-16T15:16:25.470Z,49.40
2018-05-16T15:18:55.342Z,55.20
2018-05-16T15:21:25.092Z,46.00
2018-05-16T15:23:54.163Z,43.00
2018-05-16T15:26:25.842Z,44.40
2018-05-16T15:28:55.899Z,48.60
2018-05-16T15:31:25.506Z,51.20
2018-05-16T15:33:55.147Z,51.60
2018-05-16T15:36:24.149Z,50.00
2018-05-16T15:38:53.167Z,50.20
2018-05-16T15:41:22.935Z,53.20
2018-05-16T15:43:52.123Z,48.40
2018-05-16T15:46:21.514Z,54.60
2018-05-16T15:48:50.853Z,50.20
2018-05-16T15:51:20.203Z,51.80
2018-05-16T15:53:49.823Z,55.80
2018-05-16T15:56:19.783Z,51.20
2018-05-16T15:58:49.305Z,56.40
2018-05-16T16:01:18.757Z,53.60
2018-05-16T16:03:48.699Z,56.00
2018-05-16T16:06:18.212Z,54.80
2018-05-16T16:08:47.684Z,51.00
2018-05-16T16:11:16.632Z,50.40
2018-05-16T16:13:46.646Z,52.80
2018-05-16T16:16:15.893Z,52.20
2018-05-16T16:18:45.604Z,49.60
2018-05-16T16:21:14.873Z,56.00
2018-05-16T16:23:44.788Z,54.00
2018-05-16T16:26:15.346Z,50.60
2018-05-16T16:28:44.639Z,50.80
2018-05-16T16:31:14.219Z,51.60
2018-05-16T16:33:43.997Z,55.40
2018-05-16T16:36:14.176Z,44.00
2018-05-16T16:38:43.371Z,53.20
2018-05-16T16:41:12.298Z,43.60
2018-05-16T16:43:41.580Z,51.80
2018-05-16T16:46:11.540Z,49.40
2018-05-16T16:48:40.987Z,51.80
2018-05-16T16:51:10.640Z,50.40
2018-05-16T16:53:39.495Z,47.20
2018-05-16T16:56:08.784Z,49.00
2018-05-16T16:58:38.387Z,47.60
2018-05-16T17:01:07.955Z,49.80
2018-05-16T17:03:36.759Z,50.80
2018-05-16T17:06:06.277Z,47.80
2018-05-16T17:08:36.488Z,49.20
2018-05-16T17:11:06.065Z,49.40
2018-05-16T17:13:35.216Z,49.00
2018-05-16T17:16:04.917Z,49.00
2018-05-16T17:18:36.554Z,48.00
2018-05-16T17:21:05.978Z,49.40
2018-05-16T17:23:37.091Z,45.00
2018-05-16T17:26:06.299Z,42.40
2018-05-16T17:28:35.739Z,50.40
2018-05-16T17:31:06.021Z,46.60
2018-05-16T17:33:35.179Z,44.80
2018-05-16T17:36:06.187Z,50.40
2018-05-16T17:38:35.894Z,49.80
2018-05-16T17:41:05.424Z,48.80
2018-05-16T17:43:34.454Z,47.00
2018-05-16T17:46:03.261Z,45.60
2018-05-16T17:48:32.683Z,50.60
2018-05-16T17:51:02.723Z,47.60
2018-05-16T17:53:32.225Z,48.00
2018-05-16T17:56:01.599Z,46.20
2018-05-16T17:58:30.905Z,49.20
2018-05-16T18:01:00.950Z,49.40
2018-05-16T18:03:30.213Z,48.00
2018-05-16T18:06:00.678Z,41.60
2018-05-16T18:08:31.429Z,48.00
2018-05-16T18:11:02.293Z,44.80
2018-05-16T18:16:44.495Z,48.40
2018-05-16T18:19:14.173Z,46.20
2018-05-16T18:21:43.588Z,49.80
2018-05-16T18:24:14.018Z,50.20
2018-05-16T18:26:43.685Z,43.80
2018-05-16T18:29:13.076Z,48.40
2018-05-16T18:31:41.937Z,45.60
2018-05-16T18:34:12.966Z,50.00
2018-05-16T18:36:44.819Z,46.20
2018-05-16T18:39:14.155Z,45.40
2018-05-16T18:41:43.691Z,45.20
2018-05-16T18:44:13.056Z,47.20
2018-05-16T18:46:42.331Z,45.00
2018-05-16T18:49:11.982Z,50.20
2018-05-16T18:51:40.748Z,48.40
2018-05-16T18:54:09.659Z,49.00
2018-05-16T18:56:39.834Z,52.80
2018-05-16T18:59:09.181Z,47.20
2018-05-16T19:01:38.055Z,48.80
2018-05-16T19:04:07.457Z,42.00
2018-05-16T19:06:36.542Z,45.20
2018-05-16T19:09:06.871Z,46.60
2018-05-16T19:11:36.660Z,46.00
2018-05-16T19:14:06.027Z,48.40
2018-05-16T19:16:36.601Z,48.20
2018-05-16T19:19:06.348Z,50.00
2018-05-16T19:21:35.670Z,51.00
2018-05-16T19:24:07.685Z,49.20
2018-05-16T19:26:39.311Z,52.40
2018-05-16T19:29:08.606Z,54.20
2018-05-16T19:31:38.495Z,54.80
2018-05-16T19:34:07.331Z,51.60
2018-05-16T19:36:36.478Z,48.60
2018-05-16T19:39:06.453Z,55.60
2018-05-16T19:41:35.909Z,51.40
2018-05-16T19:44:04.745Z,55.60
2018-05-16T19:46:33.997Z,54.20
2018-05-16T19:49:03.316Z,53.60
2018-05-16T19:51:31.848Z,54.20
2018-05-16T19:54:01.572Z,51.20
2018-05-16T19:56:30.936Z,50.00
2018-05-16T19:59:00.494Z,50.60
2018-05-16T20:01:30.054Z,49.20
2018-05-16T20:03:59.722Z,47.20
2018-05-16T20:06:29.741Z,55.40
2018-05-16T20:08:58.738Z,50.60
2018-05-16T20:11:27.828Z,52.20
2018-05-16T20:13:57.341Z,49.60
2018-05-16T20:16:26.110Z,52.20
2018-05-16T20:18:56.250Z,55.60
2018-05-16T20:21:25.615Z,55.00
2018-05-16T20:23:54.541Z,52.40
2018-05-16T20:26:23.550Z,51.00
2018-05-16T20:28:53.783Z,54.00
2018-05-16T20:31:23.372Z,48.60
2018-05-16T20:33:52.993Z,49.60
2018-05-16T20:36:22.438Z,50.20
2018-05-16T20:38:52.119Z,49.20
2018-05-16T20:41:21.121Z,52.40
2018-05-16T20:43:50.585Z,56.40
2018-05-16T20:46:20.234Z,53.20
2018-05-16T20:48:49.055Z,51.80
2018-05-16T20:51:18.490Z,52.80
2018-05-16T20:53:47.543Z,55.00
2018-05-16T20:56:16.753Z,58.00
2018-05-16T20:58:46.943Z,56.60
2018-05-16T21:01:15.985Z,55.00
2018-05-16T21:03:49.259Z,54.20
2018-05-16T21:06:18.823Z,55.80
2018-05-16T21:08:47.533Z,49.00
2018-05-16T21:11:16.969Z,52.60
2018-05-16T21:13:46.805Z,50.20
2018-05-16T21:16:16.445Z,52.20
2018-05-16T21:18:46.192Z,53.60
2018-05-16T21:21:15.603Z,52.80
2018-05-16T21:23:45.612Z,55.00
2018-05-16T21:26:16.184Z,47.20
2018-05-16T21:28:45.630Z,50.80
2018-05-16T21:31:15.260Z,52.60
2018-05-16T21:33:44.434Z,50.00
2018-05-16T21:36:13.483Z,58.20
2018-05-16T21:38:43.528Z,53.40
2018-05-16T21:41:13.122Z,52.60
2018-05-16T21:43:43.174Z,54.60
2018-05-16T21:46:12.452Z,50.00
2018-05-16T21:48:41.464Z,49.60
2018-05-16T21:51:10.450Z,50.40
2018-05-16T21:53:40.093Z,52.20
2018-05-16T21:56:09.780Z,55.40
2018-05-16T21:58:38.892Z,52.00
2018-05-16T22:01:07.901Z,52.40
2018-05-16T22:03:37.403Z,52.40
2018-05-16T22:06:07.018Z,52.40
2018-05-16T22:08:37.043Z,53.40
2018-05-16T22:11:06.628Z,52.80
2018-05-16T22:13:35.983Z,53.80
2018-05-16T22:16:05.606Z,54.00
2018-05-16T22:18:35.318Z,50.40
2018-05-16T22:21:04.555Z,51.80
2018-05-16T22:23:34.323Z,54.20
2018-05-16T22:26:04.964Z,54.40
2018-05-16T22:28:34.490Z,56.00
2018-05-16T22:31:09.663Z,52.60
2018-05-16T22:33:45.093Z,53.20
2018-05-16T22:36:19.870Z,54.40
2018-05-16T22:38:55.071Z,54.40
2018-05-16T22:41:30.504Z,52.20
2018-05-16T22:44:03.664Z,53.00
2018-05-16T22:46:33.770Z,56.40
2018-05-16T22:49:04.604Z,52.00
2018-05-16T22:51:34.054Z,53.60
2018-05-16T22:54:03.656Z,53.20
2018-05-16T22:56:33.959Z,55.20
2018-05-16T22:59:04.769Z,51.80
2018-05-16T23:01:34.607Z,54.60
2018-05-16T23:04:04.169Z,50.60
2018-05-16T23:06:33.881Z,49.40
2018-05-16T23:09:04.600Z,57.00
2018-05-16T23:11:34.388Z,49.60
2018-05-16T23:14:04.463Z,52.20
2018-05-16T23:16:34.050Z,55.00
2018-05-16T23:19:03.728Z,47.80
2018-05-16T23:21:33.526Z,51.80
2018-05-16T23:24:03.496Z,54.00
2018-05-16T23:26:33.551Z,49.60
2018-05-16T23:29:02.825Z,54.20
2018-05-16T23:31:32.323Z,69.20
2018-05-16T23:34:01.209Z,73.40
2018-05-16T23:36:30.198Z,85.20
2018-05-16T23:39:00.396Z,78.00
2018-05-16T23:41:30.204Z,78.20
2018-05-16T23:43:59.754Z,81.80
2018-05-16T23:46:29.169Z,77.00
2018-05-16T23:48:58.438Z,79.20
2018-05-16T23:51:30.958Z,78.00
2018-05-16T23:54:00.830Z,87.40
2018-05-16T23:56:30.318Z,82.80
2018-05-16T23:58:59.696Z,75.20
